createdAt,value
2023-05-10T00:02:08.495Z,55.54
2023-05-10T00:04:36.532Z,55.78
2023-05-10T00:07:04.558Z,55.95
2023-05-10T00:09:32.608Z,55.89
2023-05-10T00:12:00.905Z,55.16
2023-05-10T00:14:29.054Z,55.39
2023-05-10T00:16:57.188Z,55.64
2023-05-10T00:19:26.396Z,55.71
2023-05-10T00:21:54.456Z,55.95
2023-05-10T00:24:22.419Z,55.96
2023-05-10T00:26:50.566Z,55.88
2023-05-10T00:29:18.606Z,55.75
2023-05-10T00:31:46.809Z,55.66
2023-05-10T00:34:14.899Z,56.29
2023-05-10T00:36:43.114Z,56.72
2023-05-10T00:39:13.451Z,57.08
2023-05-10T00:41:41.626Z,57.09
2023-05-10T00:44:10.231Z,56.65
2023-05-10T00:46:38.303Z,56.69
2023-05-10T00:49:07.466Z,57.37
2023-05-10T00:51:36.215Z,57.29
2023-05-10T00:54:04.535Z,57.36
2023-05-10T00:56:32.948Z,57.52
2023-05-10T00:59:03.129Z,57.94
2023-05-10T01:01:31.785Z,57.87
2023-05-10T01:04:00.771Z,57.73
2023-05-10T01:06:29.491Z,57.52
2023-05-10T01:08:58.308Z,58.06
2023-05-10T01:11:27.844Z,58.27
2023-05-10T01:13:58.728Z,58.35
2023-05-10T01:16:27.865Z,58.80
2023-05-10T01:18:56.283Z,58.88
2023-05-10T01:21:43.283Z,58.81
2023-05-10T01:24:38.656Z,58.97
2023-05-10T01:27:45.895Z,59.54
2023-05-10T01:30:39.103Z,59.21
2023-05-10T01:36:14.947Z,59.20
2023-05-10T01:39:00.454Z,59.21
2023-05-10T01:41:54.077Z,59.40
2023-05-10T01:44:43.218Z,59.11
2023-05-10T01:47:16.800Z,59.76
2023-05-10T01:49:49.056Z,60.27
2023-05-10T01:52:23.151Z,60.29
2023-05-10T01:54:56.969Z,60.50
2023-05-10T01:57:33.662Z,60.45
2023-05-10T02:00:04.734Z,60.53
2023-05-10T02:02:48.849Z,60.56
2023-05-10T02:05:19.886Z,60.47
2023-05-10T02:07:50.360Z,60.14
2023-05-10T02:10:20.285Z,60.25
2023-05-10T02:12:50.003Z,60.51
2023-05-10T02:15:24.818Z,60.69
2023-05-10T02:17:55.539Z,60.47
2023-05-10T02:20:25.516Z,60.70
2023-05-10T02:22:57.047Z,60.71
2023-05-10T02:25:27.050Z,60.62
2023-05-10T02:27:57.154Z,60.84
2023-05-10T02:30:26.370Z,60.64
2023-05-10T02:32:54.886Z,60.86
2023-05-10T02:35:24.528Z,61.16
2023-05-10T02:37:54.284Z,60.79
2023-05-10T02:40:25.130Z,61.29
2023-05-10T02:42:57.420Z,61.18
2023-05-10T02:45:31.530Z,61.36
2023-05-10T02:48:00.947Z,61.75
2023-05-10T02:50:31.040Z,62.03
2023-05-10T02:53:07.825Z,62.40
2023-05-10T02:55:41.681Z,62.69
2023-05-10T02:58:09.759Z,62.93
2023-05-10T03:00:38.115Z,62.72
2023-05-10T03:03:06.334Z,62.83
2023-05-10T03:05:35.022Z,62.99
2023-05-10T03:08:05.928Z,63.13
2023-05-10T03:10:39.208Z,63.57
2023-05-10T03:13:21.472Z,63.66
2023-05-10T03:16:13.897Z,63.62
2023-05-10T03:19:17.588Z,63.51
2023-05-10T03:21:52.398Z,63.18
2023-05-10T03:24:24.872Z,63.04
2023-05-10T03:26:57.260Z,63.08
2023-05-10T03:29:27.918Z,62.68
2023-05-10T03:31:56.322Z,62.81
2023-05-10T03:34:25.685Z,62.65
2023-05-10T03:36:54.146Z,62.40
2023-05-10T03:39:22.453Z,62.07
2023-05-10T03:41:53.254Z,62.23
2023-05-10T03:44:21.348Z,62.28
2023-05-10T03:46:49.858Z,61.91
2023-05-10T03:49:18.739Z,61.67
2023-05-10T03:51:47.294Z,61.72
2023-05-10T03:54:15.872Z,61.70
2023-05-10T03:56:44.093Z,61.71
2023-05-10T03:59:13.655Z,61.69
2023-05-10T04:05:38.526Z,61.64
2023-05-10T04:08:07.609Z,61.44
2023-05-10T04:10:35.605Z,61.48
2023-05-10T04:13:03.687Z,61.71
2023-05-10T04:15:31.884Z,61.51
2023-05-10T04:17:59.932Z,61.39
2023-05-10T04:20:28.284Z,61.11
2023-05-10T04:22:56.256Z,61.19
2023-05-10T04:25:24.847Z,60.36
2023-05-10T04:27:54.282Z,60.16
2023-05-10T04:34:36.237Z,60.65
2023-05-10T04:37:04.197Z,58.81
2023-05-10T04:39:32.297Z,58.97
2023-05-10T04:42:00.324Z,56.91
2023-05-10T04:44:28.292Z,54.84
2023-05-10T04:46:56.333Z,52.17
2023-05-10T04:49:24.423Z,50.29
2023-05-10T04:51:52.348Z,48.99
2023-05-10T04:54:20.248Z,47.81
2023-05-10T04:56:48.331Z,45.58
2023-05-10T04:59:16.311Z,44.13
2023-05-10T05:01:44.388Z,42.22
2023-05-10T05:04:12.728Z,40.09
2023-05-10T05:06:43.500Z,38.43
2023-05-10T05:09:14.921Z,37.03
2023-05-10T05:11:43.634Z,39.08
2023-05-10T05:14:11.597Z,36.42
2023-05-10T05:16:40.784Z,33.80
2023-05-10T05:19:09.274Z,32.77
2023-05-10T05:21:37.709Z,31.94
2023-05-10T05:24:05.854Z,32.48
2023-05-10T05:26:34.278Z,33.76
2023-05-10T05:29:02.770Z,34.31
2023-05-10T05:31:30.798Z,34.66
2023-05-10T05:33:58.972Z,34.68
2023-05-10T05:36:26.834Z,35.24
2023-05-10T05:38:54.704Z,34.68
2023-05-10T05:41:22.700Z,34.39
2023-05-10T05:43:50.643Z,34.66
2023-05-10T05:46:18.711Z,35.10
2023-05-10T05:48:46.644Z,34.90
2023-05-10T05:51:15.511Z,34.63
2023-05-10T05:53:43.466Z,33.81
2023-05-10T05:56:11.456Z,33.78
2023-05-10T05:58:40.064Z,33.65
2023-05-10T06:01:09.717Z,34.50
2023-05-10T06:03:37.763Z,33.89
2023-05-10T06:06:06.039Z,34.00
2023-05-10T06:08:35.336Z,33.45
2023-05-10T06:11:05.261Z,34.29
2023-05-10T06:13:33.718Z,34.06
2023-05-10T06:16:04.652Z,34.51
2023-05-10T06:18:32.731Z,34.55
2023-05-10T06:21:01.240Z,34.21
2023-05-10T06:23:29.886Z,33.39
2023-05-10T06:25:57.756Z,33.32
2023-05-10T06:28:25.659Z,33.35
2023-05-10T06:30:53.581Z,32.33
2023-05-10T06:33:21.406Z,32.22
2023-05-10T06:35:49.667Z,32.04
2023-05-10T06:38:17.737Z,32.77
2023-05-10T06:40:45.596Z,33.15
2023-05-10T06:43:13.565Z,32.86
2023-05-10T06:45:42.076Z,32.40
2023-05-10T06:48:10.177Z,30.75
2023-05-10T06:50:38.675Z,31.05
2023-05-10T06:53:06.569Z,31.50
2023-05-10T06:55:34.518Z,31.06
2023-05-10T06:58:03.330Z,29.78
2023-05-10T07:00:31.362Z,30.02
2023-05-10T07:02:59.589Z,28.74
2023-05-10T07:05:29.136Z,29.36
2023-05-10T07:07:57.183Z,29.67
2023-05-10T07:10:25.140Z,30.23
2023-05-10T07:12:53.203Z,29.35
2023-05-10T07:15:21.318Z,30.11
2023-05-10T07:17:49.598Z,29.88
2023-05-10T07:20:17.643Z,28.96
2023-05-10T07:22:45.490Z,27.91
2023-05-10T07:25:13.476Z,27.75
2023-05-10T07:27:41.408Z,27.79
2023-05-10T07:30:09.658Z,28.33
2023-05-10T07:32:37.818Z,28.27
2023-05-10T07:35:06.538Z,28.24
2023-05-10T07:37:34.505Z,28.14
2023-05-10T07:40:03.121Z,27.16
2023-05-10T07:42:31.171Z,27.43
2023-05-10T07:44:59.107Z,28.28
2023-05-10T07:47:27.135Z,28.29
2023-05-10T07:49:55.124Z,28.04
2023-05-10T07:52:23.060Z,27.36
2023-05-10T07:54:51.444Z,27.36
2023-05-10T07:57:20.245Z,26.90
2023-05-10T07:59:48.605Z,27.45
2023-05-10T08:02:16.725Z,27.23
2023-05-10T08:04:44.702Z,26.74
2023-05-10T08:07:12.747Z,27.27
2023-05-10T08:09:40.837Z,27.25
2023-05-10T08:12:09.125Z,27.33
2023-05-10T08:14:37.687Z,27.76
2023-05-10T08:17:05.987Z,27.20
2023-05-10T08:19:33.969Z,27.52
2023-05-10T08:22:02.065Z,27.90
2023-05-10T08:24:31.151Z,28.03
2023-05-10T08:26:59.383Z,28.48
2023-05-10T08:29:30.367Z,27.43
2023-05-10T08:31:58.565Z,27.53
2023-05-10T08:34:26.893Z,27.82
2023-05-10T08:36:55.157Z,27.25
2023-05-10T08:39:30.385Z,27.90
2023-05-10T08:42:02.965Z,28.60
2023-05-10T08:44:36.655Z,28.90
2023-05-10T08:47:07.825Z,28.31
2023-05-10T08:49:37.404Z,28.32
2023-05-10T08:52:08.323Z,27.90
2023-05-10T08:54:37.540Z,28.81
2023-05-10T08:57:05.912Z,29.14
2023-05-10T08:59:34.270Z,29.15
2023-05-10T09:02:03.215Z,29.21
2023-05-10T09:04:32.277Z,29.28
2023-05-10T09:07:00.609Z,29.39
2023-05-10T09:09:29.236Z,30.19
2023-05-10T09:11:58.010Z,30.89
2023-05-10T09:14:27.073Z,30.84
2023-05-10T09:16:56.368Z,30.47
2023-05-10T09:19:24.609Z,30.65
2023-05-10T09:21:52.680Z,30.56
2023-05-10T09:24:20.848Z,30.13
2023-05-10T09:26:49.853Z,29.75
2023-05-10T09:29:18.251Z,30.41
2023-05-10T09:31:56.152Z,30.48
2023-05-10T09:34:30.970Z,30.59
2023-05-10T09:37:02.520Z,30.52
2023-05-10T09:39:35.358Z,30.22
2023-05-10T09:42:10.942Z,29.86
2023-05-10T09:44:39.397Z,29.30
2023-05-10T09:47:07.515Z,30.12
2023-05-10T09:49:36.165Z,29.65
2023-05-10T09:52:06.746Z,29.43
2023-05-10T09:54:35.435Z,29.46
2023-05-10T09:57:04.520Z,29.69
2023-05-10T09:59:58.569Z,29.97
2023-05-10T10:02:30.406Z,29.71
2023-05-10T10:05:04.156Z,29.66
2023-05-10T10:07:33.074Z,28.76
2023-05-10T10:10:01.708Z,28.74
2023-05-10T10:12:30.002Z,28.65
2023-05-10T10:14:58.686Z,27.93
2023-05-10T10:17:29.235Z,28.17
2023-05-10T10:19:58.432Z,28.00
2023-05-10T10:22:26.856Z,28.29
2023-05-10T10:24:56.342Z,28.33
2023-05-10T10:27:46.209Z,28.67
2023-05-10T10:30:51.097Z,29.31
2023-05-10T10:33:28.861Z,29.00
2023-05-10T10:36:00.191Z,28.23
2023-05-10T10:38:47.528Z,27.94
2023-05-10T10:41:32.692Z,27.95
2023-05-10T10:44:40.356Z,28.66
2023-05-10T10:47:24.317Z,28.92
2023-05-10T10:50:01.934Z,28.73
2023-05-10T10:52:34.783Z,28.74
2023-05-10T10:55:08.203Z,28.85
2023-05-10T10:57:42.319Z,29.07
2023-05-10T11:04:47.444Z,29.75
2023-05-10T11:07:20.077Z,28.35
2023-05-10T11:09:49.004Z,28.12
2023-05-10T11:12:17.292Z,29.33
2023-05-10T11:14:51.185Z,29.35
2023-05-10T11:17:27.981Z,28.70
2023-05-10T11:20:10.149Z,28.73
2023-05-10T11:22:52.261Z,28.09
2023-05-10T11:25:21.109Z,28.98
2023-05-10T11:27:49.492Z,28.76
2023-05-10T11:30:18.709Z,28.61
2023-05-10T11:32:47.215Z,28.79
2023-05-10T11:35:16.493Z,28.24
2023-05-10T11:37:49.240Z,28.91
2023-05-10T11:40:17.379Z,28.48
2023-05-10T11:42:46.393Z,28.45
2023-05-10T11:45:14.529Z,29.43
2023-05-10T11:47:44.486Z,29.40
2023-05-10T11:50:12.600Z,28.81
2023-05-10T11:52:40.711Z,29.04
2023-05-10T11:55:09.016Z,29.16
2023-05-10T11:57:39.577Z,29.36
2023-05-10T12:00:08.643Z,28.87
2023-05-10T12:02:36.771Z,28.85
2023-05-10T12:05:06.938Z,29.23
2023-05-10T12:07:35.314Z,28.56
2023-05-10T12:10:10.146Z,27.91
2023-05-10T12:12:43.239Z,27.89
2023-05-10T12:15:25.868Z,27.84
2023-05-10T12:17:53.966Z,28.57
2023-05-10T12:20:23.843Z,28.99
2023-05-10T12:22:58.965Z,28.07
2023-05-10T12:25:32.972Z,28.56
2023-05-10T12:28:04.636Z,29.11
2023-05-10T12:30:34.544Z,28.97
2023-05-10T12:33:08.353Z,28.67
2023-05-10T12:35:51.987Z,28.07
2023-05-10T12:38:39.383Z,28.40
2023-05-10T12:41:10.331Z,29.19
2023-05-10T12:43:41.335Z,28.21
2023-05-10T12:46:18.319Z,28.38
2023-05-10T12:48:47.518Z,29.28
2023-05-10T12:51:20.466Z,28.92
2023-05-10T12:53:49.731Z,29.45
2023-05-10T12:56:17.950Z,29.04
2023-05-10T12:58:49.268Z,28.92
2023-05-10T13:01:17.694Z,28.37
2023-05-10T13:03:45.696Z,29.15
2023-05-10T13:06:15.154Z,29.20
2023-05-10T13:08:43.307Z,28.99
2023-05-10T13:11:11.465Z,30.07
2023-05-10T13:13:39.484Z,30.73
2023-05-10T13:16:08.113Z,30.14
2023-05-10T13:18:36.425Z,30.41
2023-05-10T13:21:06.656Z,29.89
2023-05-10T13:23:35.606Z,29.92
2023-05-10T13:26:03.915Z,29.09
2023-05-10T13:28:31.864Z,29.59
2023-05-10T13:31:01.138Z,29.60
2023-05-10T13:33:29.685Z,30.18
2023-05-10T13:35:57.681Z,29.60
2023-05-10T13:38:25.852Z,29.54
2023-05-10T13:40:54.316Z,29.43
2023-05-10T13:43:23.095Z,29.92
2023-05-10T13:45:51.330Z,29.63
2023-05-10T13:48:19.439Z,29.53
2023-05-10T13:50:48.298Z,29.42
2023-05-10T13:53:16.848Z,29.60
2023-05-10T13:55:46.243Z,29.54
2023-05-10T13:58:14.464Z,29.69
2023-05-10T14:00:42.973Z,29.77
2023-05-10T14:03:12.409Z,30.14
2023-05-10T14:05:42.031Z,30.36
2023-05-10T14:08:10.991Z,30.10
2023-05-10T14:10:39.156Z,30.16
2023-05-10T14:13:07.532Z,30.30
2023-05-10T14:15:35.774Z,30.51
2023-05-10T14:18:04.122Z,29.98
2023-05-10T14:20:33.277Z,30.86
2023-05-10T14:23:01.451Z,30.89
2023-05-10T14:25:30.032Z,30.59
2023-05-10T14:27:58.156Z,30.45
2023-05-10T14:30:27.288Z,30.17
2023-05-10T14:32:55.444Z,29.92
2023-05-10T14:35:23.873Z,30.21
2023-05-10T14:37:52.222Z,30.35
2023-05-10T14:40:20.243Z,30.37
2023-05-10T14:42:48.223Z,30.29
2023-05-10T14:45:17.178Z,30.61
2023-05-10T14:47:45.460Z,30.42
2023-05-10T14:50:24.733Z,30.63
2023-05-10T14:53:01.488Z,30.83
2023-05-10T14:55:29.981Z,30.52
2023-05-10T14:57:59.283Z,30.51
2023-05-10T15:00:31.355Z,31.20
2023-05-10T15:03:00.200Z,30.72
2023-05-10T15:05:28.910Z,30.71
2023-05-10T15:07:57.280Z,30.59
2023-05-10T15:10:25.381Z,30.81
2023-05-10T15:12:53.532Z,30.66
2023-05-10T15:15:21.561Z,30.73
2023-05-10T15:17:49.743Z,30.77
2023-05-10T15:20:17.858Z,30.41
2023-05-10T15:22:45.878Z,31.03
2023-05-10T15:25:15.526Z,30.91
2023-05-10T15:27:47.115Z,30.73
2023-05-10T15:30:15.296Z,30.20
2023-05-10T15:32:43.887Z,30.09
2023-05-10T15:35:17.820Z,30.29
2023-05-10T15:37:50.344Z,30.35
2023-05-10T15:40:18.527Z,30.52
2023-05-10T15:42:46.890Z,30.81
2023-05-10T15:45:16.380Z,30.61
2023-05-10T15:47:45.737Z,30.69
2023-05-10T15:50:15.988Z,30.99
2023-05-10T15:52:43.995Z,31.43
2023-05-10T15:55:15.509Z,31.20
2023-05-10T15:57:44.206Z,30.86
2023-05-10T16:00:13.428Z,30.85
2023-05-10T16:02:41.817Z,31.18
2023-05-10T16:05:10.330Z,30.86
2023-05-10T16:07:38.487Z,31.22
2023-05-10T16:10:07.291Z,31.24
2023-05-10T16:12:35.622Z,31.47
2023-05-10T16:15:04.846Z,31.59
2023-05-10T16:17:33.132Z,31.74
2023-05-10T16:20:01.372Z,31.79
2023-05-10T16:22:30.203Z,31.82
2023-05-10T16:24:58.343Z,31.86
2023-05-10T16:27:28.799Z,32.14
2023-05-10T16:29:56.822Z,32.13
2023-05-10T16:32:25.514Z,32.20
2023-05-10T16:34:55.039Z,32.22
2023-05-10T16:37:23.101Z,32.16
2023-05-10T16:39:51.185Z,32.08
2023-05-10T16:42:19.505Z,32.23
2023-05-10T16:44:47.657Z,32.22
2023-05-10T16:47:16.704Z,32.07
2023-05-10T16:49:45.032Z,32.13
2023-05-10T16:52:13.172Z,32.32
2023-05-10T16:54:41.283Z,32.45
2023-05-10T16:57:09.459Z,32.44
2023-05-10T16:59:37.668Z,32.48
2023-05-10T17:02:06.176Z,32.32
2023-05-10T17:04:35.178Z,32.43
2023-05-10T17:07:04.010Z,32.27
2023-05-10T17:09:32.947Z,32.43
2023-05-10T17:12:01.024Z,32.63
2023-05-10T17:14:29.125Z,32.78
2023-05-10T17:16:57.524Z,32.92
2023-05-10T17:19:26.431Z,32.91
2023-05-10T17:21:54.543Z,32.90
2023-05-10T17:24:22.573Z,33.07
2023-05-10T17:26:50.790Z,33.32
2023-05-10T17:29:21.819Z,33.25
2023-05-10T17:31:56.694Z,33.00
2023-05-10T17:34:25.327Z,32.92
2023-05-10T17:36:53.758Z,33.05
2023-05-10T17:39:21.877Z,33.05
2023-05-10T17:41:50.903Z,33.19
2023-05-10T17:44:19.000Z,33.19
2023-05-10T17:46:47.809Z,33.21
2023-05-10T17:49:16.264Z,33.30
2023-05-10T17:51:48.362Z,33.34
2023-05-10T17:54:16.616Z,33.48
2023-05-10T17:56:44.995Z,33.42
2023-05-10T17:59:12.960Z,33.51
2023-05-10T18:01:41.743Z,33.64
2023-05-10T18:04:09.954Z,33.67
2023-05-10T18:06:38.278Z,33.83
2023-05-10T18:09:07.595Z,33.85
2023-05-10T18:11:36.256Z,33.95
2023-05-10T18:14:04.788Z,34.04
2023-05-10T18:16:33.129Z,34.18
2023-05-10T18:19:01.246Z,34.38
2023-05-10T18:21:29.368Z,34.41
2023-05-10T18:23:57.709Z,34.66
2023-05-10T18:26:26.349Z,34.90
2023-05-10T18:28:54.545Z,34.91
2023-05-10T18:31:23.253Z,35.09
2023-05-10T18:33:51.391Z,35.18
2023-05-10T18:36:19.826Z,35.41
2023-05-10T18:38:47.956Z,35.30
2023-05-10T18:41:16.578Z,35.55
2023-05-10T18:43:45.154Z,35.89
2023-05-10T18:46:13.150Z,35.85
2023-05-10T18:48:41.462Z,35.93
2023-05-10T18:51:10.461Z,36.26
2023-05-10T18:53:38.721Z,36.27
2023-05-10T18:56:07.284Z,36.46
2023-05-10T18:58:35.946Z,36.67
2023-05-10T19:04:36.953Z,36.70
2023-05-10T19:07:05.271Z,36.67
2023-05-10T19:09:33.729Z,36.91
2023-05-10T19:12:01.765Z,36.97
2023-05-10T19:14:31.745Z,37.14
2023-05-10T19:17:02.552Z,37.14
2023-05-10T19:19:31.974Z,37.48
2023-05-10T19:21:59.962Z,37.90
2023-05-10T19:24:28.111Z,37.77
2023-05-10T19:26:57.887Z,37.91
2023-05-10T19:29:27.744Z,37.94
2023-05-10T19:31:56.303Z,38.23
2023-05-10T19:34:27.647Z,38.18
2023-05-10T19:36:56.197Z,38.51
2023-05-10T19:39:24.338Z,38.38
2023-05-10T19:41:52.826Z,38.61
2023-05-10T19:44:21.352Z,39.28
2023-05-10T19:46:49.559Z,38.89
2023-05-10T19:49:18.061Z,38.87
2023-05-10T19:51:46.655Z,39.38
2023-05-10T19:54:14.696Z,39.42
2023-05-10T19:56:42.733Z,39.35
2023-05-10T19:59:11.624Z,39.44
2023-05-10T20:01:39.707Z,39.59
2023-05-10T20:04:07.646Z,39.65
2023-05-10T20:06:35.985Z,39.75
2023-05-10T20:09:04.407Z,39.90
2023-05-10T20:11:33.236Z,39.99
2023-05-10T20:14:02.127Z,40.17
2023-05-10T20:16:30.551Z,40.39
2023-05-10T20:18:58.687Z,40.33
2023-05-10T20:21:26.990Z,40.54
2023-05-10T20:23:55.060Z,40.65
2023-05-10T20:26:24.018Z,40.76
2023-05-10T20:28:52.437Z,40.80
2023-05-10T20:31:20.557Z,40.73
2023-05-10T20:33:48.587Z,41.06
2023-05-10T20:36:16.926Z,41.17
2023-05-10T20:38:46.266Z,41.22
2023-05-10T20:41:14.398Z,41.29
2023-05-10T20:43:42.736Z,41.41
2023-05-10T20:46:11.273Z,41.48
2023-05-10T20:48:39.505Z,41.59
2023-05-10T20:51:08.189Z,41.52
2023-05-10T20:53:36.393Z,41.68
2023-05-10T20:56:04.683Z,41.94
2023-05-10T20:58:32.781Z,42.23
2023-05-10T21:01:02.053Z,42.17
2023-05-10T21:03:30.068Z,42.06
2023-05-10T21:05:58.061Z,42.23
2023-05-10T21:08:26.114Z,42.46
2023-05-10T21:10:54.456Z,42.50
2023-05-10T21:13:23.228Z,42.76
2023-05-10T21:15:51.419Z,42.70
2023-05-10T21:18:19.604Z,42.66
2023-05-10T21:20:47.591Z,42.78
2023-05-10T21:23:15.735Z,43.05
2023-05-10T21:25:44.162Z,42.96
2023-05-10T21:28:12.329Z,42.91
2023-05-10T21:30:40.386Z,43.16
2023-05-10T21:33:08.520Z,43.21
2023-05-10T21:35:39.469Z,43.23
2023-05-10T21:38:07.659Z,43.60
2023-05-10T21:40:36.411Z,43.46
2023-05-10T21:43:04.854Z,43.50
2023-05-10T21:45:34.333Z,43.85
2023-05-10T21:48:02.644Z,44.06
2023-05-10T21:50:31.829Z,44.06
2023-05-10T21:52:59.784Z,43.97
2023-05-10T21:55:28.057Z,44.20
2023-05-10T21:57:56.100Z,44.48
2023-05-10T22:00:24.523Z,44.11
2023-05-10T22:02:52.634Z,44.16
2023-05-10T22:05:21.698Z,44.40
2023-05-10T22:07:49.715Z,44.55
2023-05-10T22:10:18.110Z,44.44
2023-05-10T22:12:46.294Z,44.55
2023-05-10T22:15:14.372Z,44.54
2023-05-10T22:17:42.603Z,45.05
2023-05-10T22:20:10.777Z,44.91
2023-05-10T22:22:38.771Z,45.09
2023-05-10T22:25:08.023Z,45.17
2023-05-10T22:27:36.252Z,45.34
2023-05-10T22:30:05.123Z,45.00
2023-05-10T22:32:33.200Z,45.26
2023-05-10T22:35:01.234Z,45.41
2023-05-10T22:37:29.239Z,45.59
2023-05-10T22:39:57.479Z,45.53
2023-05-10T22:42:25.779Z,45.53
2023-05-10T22:44:53.890Z,45.69
2023-05-10T22:47:21.837Z,45.79
2023-05-10T22:49:49.853Z,45.98
2023-05-10T22:52:17.934Z,46.18
2023-05-10T22:54:45.990Z,46.06
2023-05-10T22:57:14.082Z,46.01
2023-05-10T22:59:42.537Z,46.23
2023-05-10T23:02:10.732Z,46.38
2023-05-10T23:04:38.767Z,46.18
2023-05-10T23:07:08.165Z,46.12
2023-05-10T23:09:36.476Z,46.32
2023-05-10T23:12:07.107Z,46.41
2023-05-10T23:14:35.079Z,46.71
2023-05-10T23:17:03.245Z,46.80
2023-05-10T23:19:31.415Z,46.75
2023-05-10T23:22:02.127Z,46.78
2023-05-10T23:24:30.118Z,46.79
2023-05-10T23:26:58.091Z,46.97
2023-05-10T23:29:26.862Z,46.97
2023-05-10T23:31:54.842Z,47.12
2023-05-10T23:34:23.376Z,47.05
2023-05-10T23:36:51.767Z,47.43
2023-05-10T23:39:21.121Z,47.24
2023-05-10T23:41:49.604Z,47.26
2023-05-10T23:44:17.680Z,47.32
2023-05-10T23:46:45.956Z,47.69
2023-05-10T23:49:13.977Z,47.51
2023-05-10T23:51:43.217Z,47.43
2023-05-10T23:54:11.186Z,47.71
2023-05-10T23:56:39.280Z,47.63
2023-05-10T23:59:09.436Z,48.04
